Terminal Aerodrome Forecast
Issued by NWS

Home | Current Version | Previous Version | Text Only | Print | Product List | Glossary On
Versions: 1 2 3 4 5 6 7 8 9 10 11 12 13 14 15 16 17 18 19 20 21 22 23 24 25 26
000
FTUS43 KGRR 272337
TAFLAN
TAF
KLAN 272337Z 2800/2824 34005KT P6SM OVC017
     FM280145 36005KT P6SM -SHRA OVC015
     FM280700 02006KT 6SM BR OVC011
     FM281100 02008KT P6SM OVC020
     FM281800 01008KT P6SM BKN035
     FM282100 36008KT P6SM SCT045=

USA.gov is the U.S. government's official web portal to all federal, state and local government web resources and services.